Flight Track Log - Related Links

Times and Time Zones

All times are in EDT time to prevent confusion due to time zone crossing. See the UPS2774 flight status page for this flight to view local times or setup timezone preferences in your user account.

Time Position Orientation Groundspeed Altitude Reporting Facility
EDT Latitude Longitude Course Direction KTS MPH feet Rate Location/Type
Mon 04:54:26 PM 38.1650 -85.7380 292° West 17 20  Level FlightAware ADS-B
Mon 04:54:53 PM 38.1660 -85.7400 302° West 16 18 71 Level FlightAware ADS-B
Mon 04:55:10 PM 38.1670 -85.7410 322° Northwest 17 20 73 Level FlightAware ADS-B
Mon 04:55:26 PM 38.1690 -85.7410 360° North 18 21 75 Level FlightAware ADS-B
Mon 04:55:50 PM 38.1710 -85.7420 339° North 21 24 77 Level FlightAware ADS-B
Mon 04:57:01 PM 38.1770 -85.7440 345° North 18 21 79 Level FlightAware ADS-B
Mon 04:57:35 PM 38.1800 -85.7450 345° North 22 25 89 Level FlightAware ADS-B
Mon 04:58:10 PM 38.1830 -85.7460 345° North 25 29 94 Level FlightAware ADS-B
Mon 04:58:33 PM 38.1840 -85.7460 360° North 18 21 100 Level FlightAware ADS-B
Mon 05:01:00 PM 37.9631 -86.0448 233° Southwest  Level Estimated
Mon 05:02:00 PM 37.8727 -86.1663 274° West  Level Estimated
Mon 05:03:00 PM 37.8852 -86.3324 275° West  Level FlightAware Approximate
Mon 05:04:00 PM 37.7937 -86.4523 270° West  Level Estimated
Mon 05:05:00 PM 37.7020 -86.5720 270° West  Level Estimated
Mon 05:06:15 PM 38.1840 -85.7480 180° South  Level FlightAware ADS-B
Mon 05:06:43 PM 38.1770 -85.7460 167° South 115 132 964 Level FlightAware ADS-B
Mon 05:07:11 PM 38.1570 -85.7390 165° South 161 185 900 2,000 Climbing FlightAware ADS-B
Mon 05:07:40 PM 38.1360 -85.7340 169° South 188 216 1,900 2,118 Climbing FlightAware ADS-B
Mon 05:07:45 PM 38.1310 -85.7330 171° South 195 224 2,100 1,902 Climbing FlightAware ADS-B
Mon 05:08:21 PM 38.0940 -85.7420 191° South 259 298 3,200 2,000 Climbing FlightAware ADS-B
Mon 05:08:33 PM 38.0830 -85.7560 225° Southwest 275 316 3,700 3,214 Climbing FlightAware ADS-B
Mon 05:08:49 PM 38.0760 -85.7800 250° West 277 319 4,700 3,750 Climbing FlightAware ADS-B
Mon 05:09:05 PM 38.0760 -85.8060 270° West 285 328 5,700 3,409 Climbing FlightAware ADS-B
Mon 05:09:33 PM 38.0770 -85.8550 272° West 302 348 7,200 3,500 Climbing FlightAware ADS-B
Mon 05:09:53 PM 38.0780 -85.8910 272° West 301 346 8,500 2,914 Climbing FlightAware ADS-B
Mon 05:10:43 PM 38.0660 -85.9750 260° West 314 361 10,600 2,278 Climbing FlightAware ADS-B
Mon 05:11:41 PM 38.0090 -86.0600 230° Southwest 369 425 12,600 2,170 Climbing FlightAware ADS-B
Mon 05:12:17 PM 37.9810 -86.1410 246° West 402 463 14,000 2,675 Climbing FlightAware ADS-B
Mon 05:13:04 PM 37.9480 -86.2410 247° West 412 474 16,300 2,636 Climbing FlightAware ADS-B
Mon 05:14:04 PM 37.9010 -86.3700 245° Southwest 429 494 18,700 1,788 Climbing FlightAware ADS-B
Mon 05:14:48 PM 37.8700 -86.4580 246° West 436 502 19,400 863 Climbing FlightAware ADS-B
Mon 05:16:23 PM 37.7910 -86.6710 245° Southwest 447 514 20,700 2,571 Climbing FlightAware ADS-B
Mon 05:17:08 PM 37.7330 -86.8270 245° Southwest 487 560 25,400 4,357 Climbing FlightAware ADS-B
Mon 05:17:47 PM 37.6950 -86.9300 245° Southwest 494 568 26,800 2,000 Climbing FlightAware ADS-B
Mon 05:18:32 PM 37.6510 -87.0490 245° Southwest 501 577 28,200 1,674 Climbing FlightAware ADS-B
Mon 05:19:13 PM 37.6100 -87.1600 245° Southwest 512 589 29,200 1,906 Climbing FlightAware ADS-B
Mon 05:19:57 PM 37.5670 -87.2760 245° Southwest 508 585 30,900 2,240 Climbing FlightAware ADS-B
Mon 05:20:28 PM 37.5360 -87.3580 245° Southwest 505 581 32,000 1,658 Climbing FlightAware ADS-B
Mon 05:21:13 PM 37.4900 -87.4800 245° Southwest 510 587 33,000 1,624 Climbing FlightAware ADS-B
Mon 05:21:53 PM 37.4500 -87.5860 245° Southwest 507 583 34,300 1,857 Climbing FlightAware ADS-B
Mon 05:22:37 PM 37.4050 -87.7040 244° Southwest 501 577 35,600 1,857 Climbing FlightAware ADS-B
Mon 05:23:17 PM 37.3660 -87.8060 244° Southwest 490 564 36,900 1,537 Climbing FlightAware ADS-B
Mon 05:23:59 PM 37.3260 -87.9140 245° Southwest 488 562 37,700 767 Climbing FlightAware ADS-B
Mon 05:24:43 PM 37.2830 -88.0250 244° Southwest 486 559 38,000 214 Climbing FlightAware ADS-B
Mon 05:25:23 PM 37.2430 -88.1300 244° Southwest 484 557 38,000  Level FlightAware ADS-B
Mon 05:26:01 PM 37.2080 -88.2220 244° Southwest 483 556 38,000  Level FlightAware ADS-B
Mon 05:26:47 PM 37.1620 -88.3410 244° Southwest 487 560 38,000  Level FlightAware ADS-B
Mon 05:27:31 PM 37.1190 -88.4530 244° Southwest 489 563 38,000  Level FlightAware ADS-B
Mon 05:28:09 PM 37.0820 -88.5490 244° Southwest 491 565 38,000  Level FlightAware ADS-B
Mon 05:28:55 PM 37.0360 -88.6670 244° Southwest 490 564 38,000  Level FlightAware ADS-B
Mon 05:29:42 PM 36.9900 -88.7850 244° Southwest 490 564 38,000  Level FlightAware ADS-B
Mon 05:30:26 PM 36.9590 -88.8640 244° Southwest 489 563 38,000  Level FlightAware ADS-B
Mon 05:32:13 PM 36.8390 -89.1660 244° Southwest 487 560 38,000  Level FlightAware ADS-B
Mon 05:32:50 PM 36.8050 -89.2510 243° Southwest 487 560 38,000  Level FlightAware ADS-B
Mon 05:33:26 PM 36.7730 -89.3280 243° Southwest 487 560 38,000  Level FlightAware ADS-B
Mon 05:34:08 PM 36.7230 -89.4560 244° Southwest 486 559 38,000  Level FlightAware ADS-B
Mon 05:34:52 PM 36.6790 -89.5660 244° Southwest 487 560 38,000 71 Level FlightAware ADS-B
Mon 05:35:32 PM 36.6410 -89.6630 244° Southwest 487 560 38,100 73 Climbing FlightAware ADS-B
Mon 05:36:14 PM 36.5980 -89.7700 243° Southwest 487 560 38,100  Level FlightAware ADS-B
Mon 05:36:53 PM 36.5640 -89.8530 243° Southwest 487 560 38,100 -61 Level FlightAware ADS-B
Mon 05:37:52 PM 36.4980 -90.0160 243° Southwest 487 560 38,000 -62 Descending FlightAware ADS-B
Mon 05:38:30 PM 36.4590 -90.1100 243° Southwest 487 560 38,000  Level FlightAware ADS-B
Mon 05:39:10 PM 36.4180 -90.2100 243° Southwest 487 560 38,000  Level FlightAware ADS-B
Mon 05:39:54 PM 36.3730 -90.3210 243° Southwest 486 559 38,000  Level FlightAware ADS-B
Mon 05:40:34 PM 36.3330 -90.4180 243° Southwest 485 558 38,000  Level FlightAware ADS-B
Mon 05:41:16 PM 36.2890 -90.5240 243° Southwest 483 556 38,000  Level FlightAware ADS-B
Mon 05:42:00 PM 36.2450 -90.6310 243° Southwest 483 556 38,000  Level FlightAware ADS-B
Mon 05:42:40 PM 36.2040 -90.7290 243° Southwest 482 555 38,000  Level FlightAware ADS-B
Mon 05:43:19 PM 36.1650 -90.8230 243° Southwest 480 552 38,000  Level FlightAware ADS-B
Mon 05:43:56 PM 36.1270 -90.9130 242° Southwest 480 552 38,000  Level FlightAware ADS-B
Mon 05:44:38 PM 36.0960 -91.0220 251° West 482 555 38,000  Level FlightAware ADS-B
Mon 05:45:15 PM 36.0770 -91.1160 256° West 481 554 38,000  Level FlightAware ADS-B
Mon 05:46:06 PM 36.0490 -91.2570 256° West 480 552 38,000  Level FlightAware ADS-B
Mon 05:46:42 PM 36.0290 -91.3530 256° West 481 554 38,000  Level FlightAware ADS-B
Mon 05:47:30 PM 36.0020 -91.4810 255° West 483 556 38,000  Level FlightAware ADS-B
Mon 05:48:10 PM 35.9810 -91.5870 256° West 485 558 38,000 75 Level FlightAware ADS-B
Mon 05:48:50 PM 35.9580 -91.6950 255° West 486 559 38,100  Climbing FlightAware ADS-B
Mon 05:49:34 PM 35.9340 -91.8140 256° West 488 562 38,000 -73 Descending FlightAware ADS-B
Mon 05:50:12 PM 35.9120 -91.9160 255° West 490 564 38,000 71 Level FlightAware ADS-B
Mon 05:50:58 PM 35.8850 -92.0410 255° West 492 566 38,100 70 Climbing FlightAware ADS-B
Mon 05:51:38 PM 35.8620 -92.1480 255° West 492 566 38,100  Level FlightAware ADS-B
Mon 05:52:19 PM 35.8390 -92.2570 255° West 493 567 38,100 -79 Level FlightAware ADS-B
Mon 05:52:54 PM 35.8180 -92.3530 255° West 493 567 38,000 -76 Descending FlightAware ADS-B
Mon 05:53:38 PM 35.7930 -92.4710 255° West 494 568 38,000  Level FlightAware ADS-B
Mon 05:54:18 PM 35.7680 -92.5820 255° West 494 568 38,000  Level FlightAware ADS-B
Mon 05:55:02 PM 35.7430 -92.7000 255° West 491 565 38,000  Level FlightAware ADS-B
Mon 05:55:46 PM 35.7180 -92.8190 256° West 491 565 38,000  Level FlightAware ADS-B
Mon 05:56:26 PM 35.6930 -92.9280 254° West 489 563 38,000  Level FlightAware ADS-B
Mon 05:57:08 PM 35.6690 -93.0390 255° West 484 557 38,000  Level FlightAware ADS-B
Mon 05:57:44 PM 35.6480 -93.1320 254° West 482 555 38,000  Level FlightAware ADS-B
Mon 05:58:24 PM 35.6240 -93.2400 255° West 478 550 38,000  Level FlightAware ADS-B
Mon 05:59:09 PM 35.5980 -93.3560 255° West 474 545 38,000  Level FlightAware ADS-B
Mon 05:59:40 PM 35.5800 -93.4360 255° West 475 547 38,000  Level FlightAware ADS-B
Mon 06:00:22 PM 35.5550 -93.5470 255° West 478 550 38,000  Level FlightAware ADS-B
Mon 06:01:08 PM 35.5280 -93.6670 255° West 485 558 38,000 73 Level FlightAware ADS-B
Mon 06:01:44 PM 35.5060 -93.7630 254° West 491 565 38,100  Climbing FlightAware ADS-B
Mon 06:02:28 PM 35.4800 -93.8790 255° West 489 563 38,000 -68 Descending FlightAware ADS-B
Mon 06:03:12 PM 35.4520 -93.9990 254° West 485 558 38,000  Level FlightAware ADS-B
Mon 06:03:56 PM 35.4260 -94.1120 254° West 478 550 38,000  Level FlightAware ADS-B
Mon 06:04:28 PM 35.4050 -94.1950 253° West 472 543 38,000  Level FlightAware ADS-B
Mon 06:05:12 PM 35.3590 -94.2930 240° Southwest 459 528 38,000  Level FlightAware ADS-B
Mon 06:05:46 PM 35.3080 -94.3590 227° Southwest 452 520 38,000  Level FlightAware ADS-B
Mon 06:06:26 PM 35.2530 -94.4190 222° Southwest 452 520 38,000  Level FlightAware ADS-B
Mon 06:07:11 PM 35.1800 -94.4990 222° Southwest 456 525 38,000  Level FlightAware ADS-B
Mon 06:07:46 PM 35.1220 -94.5620 222° Southwest 458 527 38,000  Level FlightAware ADS-B
Mon 06:08:36 PM 35.0400 -94.6500 221° Southwest 463 533 38,000 67 Level FlightAware ADS-B
Mon 06:09:16 PM 34.9790 -94.7160 222° Southwest 463 533 38,100  Climbing FlightAware ADS-B
Mon 06:10:26 PM 34.9340 -94.7650 222° Southwest 461 531 38,000 -44 Descending FlightAware ADS-B
Mon 06:11:33 PM 34.8420 -94.8620 221° Southwest 461 531 38,000  Level FlightAware ADS-B
Mon 06:12:34 PM 34.7590 -94.9500 221° Southwest 461 531 38,000  Level FlightAware ADS-B
Mon 06:13:11 PM 34.7080 -95.0040 221° Southwest 461 531 38,000  Level FlightAware ADS-B
Mon 06:13:59 PM 34.6430 -95.0730 221° Southwest 461 531 38,000  Level FlightAware ADS-B
Mon 06:14:36 PM 34.5920 -95.1260 221° Southwest 461 531 38,000  Level FlightAware ADS-B
Mon 06:15:28 PM 34.5210 -95.2020 221° Southwest 461 531 38,000  Level FlightAware ADS-B
Mon 06:16:34 PM 34.3020 -95.4380 222° Southwest 440 506 38,000 56 Level FlightAware ADS-B
Mon 06:17:16 PM 34.2390 -95.5050 221° Southwest 441 507 38,100  Climbing FlightAware ADS-B
Mon 06:17:54 PM 34.1790 -95.5680 221° Southwest 439 505 38,000 -61 Descending FlightAware ADS-B
Mon 06:18:54 PM 34.0940 -95.6560 221° Southwest 436 502 38,000  Level FlightAware ADS-B
Mon 06:19:28 PM 34.0360 -95.7170 221° Southwest 435 501 38,000  Level FlightAware ADS-B
Mon 06:20:06 PM 33.9810 -95.7750 221° Southwest 437 503 38,000  Level FlightAware ADS-B
Mon 06:20:50 PM 33.9110 -95.8480 221° Southwest 439 505 38,000  Level FlightAware ADS-B
Mon 06:21:35 PM 33.8420 -95.9190 221° Southwest 442 509 38,000 70 Level FlightAware ADS-B
Mon 06:22:16 PM 33.7780 -95.9860 221° Southwest 443 510 38,100 71 Climbing FlightAware ADS-B
Mon 06:22:59 PM 33.7120 -96.0540 221° Southwest 444 511 38,100 -70 Level FlightAware ADS-B
Mon 06:23:42 PM 33.6440 -96.1250 221° Southwest 443 510 38,000 -73 Descending FlightAware ADS-B
Mon 06:24:21 PM 33.5840 -96.1860 220° Southwest 444 511 38,000  Level FlightAware ADS-B
Mon 06:25:04 PM 33.5190 -96.2570 222° Southwest 445 512 38,000  Level FlightAware ADS-B
Mon 06:25:47 PM 33.4840 -96.3520 246° West 459 528 38,000  Level FlightAware ADS-B
Mon 06:26:27 PM 33.4940 -96.4570 277° West 478 550 38,000  Level FlightAware ADS-B
Mon 06:27:11 PM 33.5460 -96.5520 303° West 490 564 38,000  Level FlightAware ADS-B
Mon 06:27:51 PM 33.6050 -96.6370 310° West 488 562 38,000  Level FlightAware ADS-B
Mon 06:28:36 PM 33.6700 -96.7330 309° West 486 559 38,000  Level FlightAware ADS-B
Mon 06:29:12 PM 33.7210 -96.8090 309° West 483 556 38,000  Level FlightAware ADS-B
Mon 06:29:32 PM 33.7390 -96.8520 297° West 473 544 38,000  Level FlightAware ADS-B
Mon 06:30:11 PM 33.7500 -96.9500 278° West 458 527 38,000 71 Level FlightAware ADS-B
Mon 06:30:56 PM 33.7160 -97.0580 249° West 442 509 38,100 79 Climbing FlightAware ADS-B
Mon 06:31:27 PM 33.6750 -97.1070 225° Southwest 436 502 38,100 -86 Level FlightAware ADS-B
Mon 06:32:06 PM 33.6080 -97.1440 205° Southwest 431 496 38,000 -109 Descending FlightAware ADS-B
Mon 06:32:22 PM 33.5690 -97.1490 186° South 430 495 38,000  Level FlightAware ADS-B
Mon 06:33:06 PM 33.4830 -97.1270 168° South 431 496 38,000  Level FlightAware ADS-B
Mon 06:33:42 PM 33.4150 -97.1020 163° South 429 494 38,000  Level FlightAware ADS-B
Mon 06:34:23 PM 33.3360 -97.0720 162° South 430 495 38,000  Level FlightAware ADS-B
Mon 06:35:06 PM 33.2550 -97.0410 162° South 431 496 38,000  Level FlightAware ADS-B
Mon 06:35:49 PM 33.1720 -97.0100 163° South 434 499 38,000  Level FlightAware ADS-B
Mon 06:36:29 PM 33.0960 -96.9810 162° South 436 502 38,000 71 Level FlightAware ADS-B
Mon 06:37:14 PM 33.0110 -96.9490 162° South 437 503 38,100 71 Climbing FlightAware ADS-B
Mon 06:37:54 PM 32.9330 -96.9200 163° South 438 504 38,100 -79 Level FlightAware ADS-B
Mon 06:38:30 PM 32.8610 -96.8960 164° South 436 502 38,000 -76 Descending FlightAware ADS-B
Mon 06:39:13 PM 32.7760 -96.8710 166° South 440 506 38,000  Level FlightAware ADS-B
Mon 06:39:52 PM 32.6990 -96.8490 166° South 442 509 38,000  Level FlightAware ADS-B
Mon 06:40:29 PM 32.6260 -96.8280 166° South 443 510 38,000  Level FlightAware ADS-B
Mon 06:41:09 PM 32.5440 -96.8050 167° South 443 510 38,000  Level FlightAware ADS-B
Mon 06:41:54 PM 32.4560 -96.7790 166° South 446 513 38,000  Level FlightAware ADS-B
Mon 06:42:34 PM 32.3750 -96.7560 167° South 447 514 38,000  Level FlightAware ADS-B
Mon 06:43:18 PM 32.2860 -96.7310 167° South 448 516 38,000  Level FlightAware ADS-B
Mon 06:43:57 PM 32.2080 -96.7090 167° South 448 516 38,000 -417 Level FlightAware ADS-B
Mon 06:44:30 PM 32.1389 -96.7146 184° South 439 505 37,500 -828 Descending FlightAware ADS-B
Mon 06:44:55 PM 32.0935 -96.7367 202° Southwest 439 505 37,200 -892 Descending FlightAware ADS-B
Mon 06:45:44 PM 32.0004 -96.7872 204° Southwest 441 507 36,400 -300 Descending FlightAware ADS-B
Mon 06:46:15 PM 31.9770 -96.7980 201° Southwest 443 510 36,800 -977 Climbing FlightAware ADS-B
Mon 06:46:27 PM 31.9202 -96.8314 207° Southwest 454 522 35,700 -1,935 Descending FlightAware ADS-B
Mon 06:47:17 PM 31.8242 -96.8847 205° Southwest 460 529 34,800 -982 Descending FlightAware ADS-B
Mon 06:47:22 PM 31.8145 -96.8889 200° South 461 531 34,800 -783 Level FlightAware ADS-B
Mon 06:47:40 PM 31.7768 -96.8996 191° South 464 534 34,500 -1,034 Descending FlightAware ADS-B
Mon 06:47:51 PM 31.7541 -96.9019 185° South 465 535 34,300 -1,143 Descending FlightAware ADS-B
Mon 06:48:01 PM 31.7314 -96.9013 179° South 468 539 34,100 -857 Descending FlightAware ADS-B
Mon 06:48:05 PM 31.7224 -96.9002 174° South 468 539 34,100 -545 Level FlightAware ADS-B
Mon 06:48:12 PM 31.7093 -96.8977 171° South 470 541 34,000 -1,065 Descending FlightAware ADS-B
Mon 06:49:07 PM 31.6025 -96.8292 142° Southeast 484 557 33,000 -1,043 Descending FlightAware ADS-B
Mon 06:49:44 PM 31.5607 -96.7501 114° Southeast 465 535 32,400 -992 Descending FlightAware ADS-B
Mon 06:51:14 PM 31.4336 -96.6144 175° South 439 505 30,900 -1,068 Descending FlightAware ADS-B
Mon 06:52:10 PM 31.3255 -96.6505 201° Southwest 434 499 29,800 -1,220 Descending FlightAware ADS-B
Mon 06:53:17 PM 31.2082 -96.7196 211° Southwest 414 476 28,400 -1,176 Descending FlightAware ADS-B
Mon 06:53:52 PM 31.1521 -96.7601 212° Southwest 390 449 27,800 -1,027 Descending FlightAware ADS-B
Mon 06:55:08 PM 31.0405 -96.8415 211° Southwest 369 425 26,500 -1,000 Descending FlightAware ADS-B
Mon 06:55:16 PM 31.0276 -96.8473 201° Southwest 367 422 26,400 -933 Descending FlightAware ADS-B
Mon 06:55:53 PM 30.9655 -96.8570 187° South 362 417 25,800 -985 Descending FlightAware ADS-B
Mon 06:56:23 PM 30.9153 -96.8635 186° South 360 414 25,300 -1,038 Descending FlightAware ADS-B
Mon 06:56:45 PM 30.8801 -96.8640 176° South 357 411 24,900 -1,053 Descending FlightAware ADS-B
Mon 06:57:20 PM 30.8238 -96.8418 160° South 357 411 24,300 -1,000 Descending FlightAware ADS-B
Mon 06:57:51 PM 30.7772 -96.8223 160° South 357 411 23,800 -941 Descending FlightAware ADS-B
Mon 06:58:11 PM 30.7463 -96.8083 155° Southeast 357 411 23,500 -857 Descending FlightAware ADS-B
Mon 06:58:19 PM 30.7346 -96.7997 148° Southeast 357 411 23,400 -1,000 Descending FlightAware ADS-B
Mon 06:59:29 PM 30.6665 -96.6928 125° Southeast 353 406 22,200 -938 Descending FlightAware ADS-B
Mon 07:01:31 PM 30.5513 -96.4983 124° Southeast 392 451 20,400 -832 Descending FlightAware ADS-B
Mon 07:01:46 PM 30.5349 -96.4704 124° Southeast 393 452 20,300 -500 Descending FlightAware ADS-B
Mon 07:01:55 PM 30.5255 -96.4568 129° Southeast 392 451 20,200 -439 Descending FlightAware ADS-B
Mon 07:02:27 PM 30.4855 -96.4080 134° Southeast 391 450 20,000 -477 Descending FlightAware ADS-B
Mon 07:03:23 PM 30.4163 -96.3228 133° Southeast 385 443 19,500 -545 Descending FlightAware ADS-B
Mon 07:03:33 PM 30.4058 -96.3077 129° Southeast 384 442 19,400 -2,805 Descending FlightAware ADS-B
Mon 07:04:40 PM 30.3489 -96.1890 118° Southeast 371 427 15,900 -3,093 Descending FlightAware ADS-B
Mon 07:05:10 PM 30.3251 -96.1365 118° Southeast 362 417 14,400 -2,852 Descending FlightAware ADS-B
Mon 07:05:41 PM 30.3014 -96.0859 118° Southeast 346 398 13,000 -2,836 Descending FlightAware ADS-B
Mon 07:06:05 PM 30.2831 -96.0463 118° Southeast 338 389 11,800 -2,071 Descending FlightAware ADS-B
Mon 07:07:05 PM 30.2417 -95.9559 118° Southeast 292 336 10,100 -1,714 Descending FlightAware ADS-B
Mon 07:07:15 PM 30.2352 -95.9426 121° Southeast 283 326 9,800 -1,846 Descending FlightAware ADS-B
Mon 07:07:18 PM 30.2327 -95.9388 127° Southeast 282 325 9,700 -2,455 Descending FlightAware ADS-B
Mon 07:07:37 PM 30.2130 -95.9225 154° Southeast 276 318 8,900 -2,273 Descending FlightAware ADS-B
Mon 07:08:24 PM 30.1601 -95.8943 156° South 265 305 7,200 -2,100 Descending FlightAware ADS-B
Mon 07:08:37 PM 30.1454 -95.8866 156° South 263 303 6,800 -2,069 Descending FlightAware ADS-B
Mon 07:08:53 PM 30.1278 -95.8774 156° South 262 302 6,200 -2,348 Descending FlightAware ADS-B
Mon 07:09:00 PM 30.1202 -95.8731 154° Southeast 262 302 5,900 -2,400 Descending FlightAware ADS-B
Mon 07:09:03 PM 30.1169 -95.8709 150° Southeast 262 302 5,800 -1,714 Descending FlightAware ADS-B
Mon 07:09:07 PM 30.1136 -95.8683 146° Southeast 261 300 5,700 -2,250 Descending FlightAware ADS-B
Mon 07:09:11 PM 30.1098 -95.8646 140° Southeast 261 300 5,500 -2,571 Descending FlightAware ADS-B
Mon 07:09:14 PM 30.1071 -95.8614 134° Southeast 262 302 5,400 -2,000 Descending FlightAware ADS-B
Mon 07:09:17 PM 30.1047 -95.8579 128° Southeast 263 303 5,300 -1,091 Descending FlightAware ADS-B
Mon 07:09:25 PM 30.1002 -95.8484 115° Southeast 261 300 5,200 -1,091 Descending FlightAware ADS-B
Mon 07:09:28 PM 30.0987 -95.8436 110° East 260 299 5,100 -1,385 Descending FlightAware ADS-B
Mon 07:09:38 PM 30.0952 -95.8305 107° East 258 297 4,900 -1,263 Descending FlightAware ADS-B
Mon 07:09:47 PM 30.0922 -95.8194 107° East 258 297 4,700 -1,263 Descending FlightAware ADS-B
Mon 07:09:57 PM 30.0883 -95.8066 109° East 258 297 4,500 -1,440 Descending FlightAware ADS-B
Mon 07:10:12 PM 30.0818 -95.7874 111° Southeast 255 293 4,100 -1,000 Descending FlightAware ADS-B
Mon 07:10:27 PM 30.0754 -95.7675 110° East 258 297 4,000 -194 Descending FlightAware ADS-B
Mon 07:10:43 PM 30.0695 -95.7485 110° East 244 281 4,000  Level FlightAware ADS-B
Mon 07:10:58 PM 30.0640 -95.7295 108° East 227 261 4,000  Level FlightAware ADS-B
Mon 07:11:05 PM 30.0621 -95.7227 108° East 222 255 4,000  Level FlightAware ADS-B
Mon 07:11:13 PM 30.0595 -95.7133 108° East 212 244 4,000 -750 Level FlightAware ADS-B
Mon 07:11:29 PM 30.0549 -95.6966 108° East 208 239 3,700 -1,161 Descending FlightAware ADS-B
Mon 07:11:44 PM 30.0506 -95.6804 107° East 209 241 3,400 -1,241 Descending FlightAware ADS-B
Mon 07:11:58 PM 30.0466 -95.6659 108° East 208 239 3,100 -1,000 Descending FlightAware ADS-B
Mon 07:12:08 PM 30.0435 -95.6555 109° East 207 238 3,000 -240 Descending FlightAware ADS-B
Mon 07:12:23 PM 30.0388 -95.6398 109° East 205 236 3,000  Level FlightAware ADS-B
Mon 07:12:38 PM 30.0340 -95.6238 109° East 205 236 3,000  Level FlightAware ADS-B
Mon 07:12:51 PM 30.0299 -95.6107 110° East 207 238 3,000  Level FlightAware ADS-B
Mon 07:13:06 PM 30.0250 -95.5953 110° East 206 237 3,000  Level FlightAware ADS-B
Mon 07:13:22 PM 30.0197 -95.5791 111° Southeast 208 239 3,000  Level FlightAware ADS-B
Mon 07:13:38 PM 30.0142 -95.5616 110° East 208 239 3,000  Level FlightAware ADS-B
Mon 07:13:47 PM 30.0117 -95.5527 108° East 206 237 3,000  Level FlightAware ADS-B
Mon 07:13:50 PM 30.0110 -95.5494 104° East 206 237 3,000  Level FlightAware ADS-B
Mon 07:13:54 PM 30.0103 -95.5447 100° East 207 238 3,000 -522 Level FlightAware ADS-B
Mon 07:14:13 PM 30.0084 -95.5239 96° East 211 243 2,800 -889 Descending FlightAware ADS-B
Mon 07:14:21 PM 30.0072 -95.5145 98° East 211 243 2,600 -1,000 Descending FlightAware ADS-B
Mon 07:14:25 PM 30.0067 -95.5111 100° East 212 244 2,600 -667 Level FlightAware ADS-B
Mon 07:14:30 PM 30.0064 -95.5053 93° East 211 243 2,500 -1,200 Descending FlightAware ADS-B
Mon 07:14:35 PM 30.0064 -95.4991 90° East 208 239 2,400 -1,200 Descending FlightAware ADS-B
Mon 07:14:45 PM 30.0065 -95.4880 89° East 208 239 2,200 -1,200 Descending FlightAware ADS-B
Mon 07:15:00 PM 30.0070 -95.4712 88° East 207 238 1,900 -1,034 Descending FlightAware ADS-B
Mon 07:15:14 PM 30.0072 -95.4559 89° East 203 234 1,700 -968 Descending FlightAware ADS-B
Mon 07:15:31 PM 30.0071 -95.4384 90° East 188 216 1,400 -1,029 Descending FlightAware ADS-B
Mon 07:15:49 PM 30.0071 -95.4227 90° East 157 181 1,100 -800 Descending FlightAware ADS-B
Mon 07:16:01 PM 30.0071 -95.4127 90° East 152 175 1,000 -643 Descending FlightAware ADS-B
Mon 07:16:17 PM 30.0071 -95.3997 90° East 155 178 800 -720 Descending FlightAware ADS-B
Mon 07:16:26 PM 30.0071 -95.3927 90° East 155 178 700 -857 Descending FlightAware ADS-B
Mon 07:16:38 PM 30.0071 -95.3825 90° East 159 183 500 -783 Descending FlightAware ADS-B
Mon 07:16:49 PM 30.0072 -95.3733 89° East 153 176 400 -750 Descending FlightAware ADS-B
Mon 07:17:02 PM 30.0072 -95.3627 90° East 148 170 200 -1,000 Descending FlightAware ADS-B
Mon 07:17:07 PM 30.0072 -95.3589 90° East 147 169 100 -1,200 Descending FlightAware ADS-B

Login

Don't have an account? Register now (free) for customized features, flight alerts, and more!